Time;durP1;ratioP1;P1;durP2;ratioP2;P2;SDS_P1;SDS_P2;PMS_P1;PMS_P2;Temp;Humidity;BMP_temperature;BMP_pressure;BME280_temperature;BME280_humidity;BME280_pressure;Samples;Min_cycle;Max_cycle;Signal;HPM_P1;HPM_P2
2024/04/06 00:01:14;;;;;;;;;6.00;6.00;;;;;17.31;83.37;100647.38;5100780;27;45397;-81
2024/04/06 00:03:39;;;;;;;;;5.50;5.50;;;;;17.36;83.22;100655.19;5101145;27;45280;-81
2024/04/06 00:06:05;;;;;;;;;7.50;7.50;;;;;17.50;83.20;100667.81;5100642;27;60684;-81
2024/04/06 00:08:30;;;;;;;;;7.00;7.00;;;;;17.55;82.84;100685.44;5101824;27;46436;-81
2024/04/06 00:10:55;;;;;;;;;7.50;6.25;;;;;17.33;83.04;100648.13;5100566;27;58614;-81
2024/04/06 00:13:21;;;;;;;;;7.50;7.50;;;;;17.33;83.08;100658.06;5090083;27;45216;-81
2024/04/06 00:15:46;;;;;;;;;9.75;8.50;;;;;17.29;82.97;100654.69;5089404;27;45238;-81
2024/04/06 00:18:11;;;;;;;;;7.25;6.75;;;;;17.28;83.12;100658.34;5099518;27;66996;-81
2024/04/06 00:20:37;;;;;;;;;7.00;7.00;;;;;17.48;82.93;100680.53;5101172;27;45257;-82
2024/04/06 00:23:03;;;;;;;;;6.25;6.25;;;;;17.36;82.70;100674.06;5101285;27;45281;-81
2024/04/06 00:25:28;;;;;;;;;8.25;8.25;;;;;17.22;82.75;100646.13;5102771;27;45432;-81
2024/04/06 00:27:54;;;;;;;;;6.00;5.00;;;;;17.30;82.89;100659.13;5104693;27;45419;-81
2024/04/06 00:30:19;;;;;;;;;7.00;7.00;;;;;17.14;82.25;100628.66;5104723;27;45301;-81
2024/04/06 00:32:44;;;;;;;;;5.50;5.50;;;;;17.13;81.84;100638.56;5088809;27;59554;-81
2024/04/06 00:35:10;;;;;;;;;7.50;7.00;;;;;17.18;82.10;100651.78;5086323;27;45511;-81
2024/04/06 00:37:35;;;;;;;;;6.25;6.00;;;;;17.16;82.25;100638.41;5104732;27;45231;-81
2024/04/06 00:40:00;;;;;;;;;6.50;6.00;;;;;17.32;82.27;100664.41;5103942;27;45384;-81
2024/04/06 00:42:26;;;;;;;;;7.00;7.00;;;;;17.11;81.85;100624.31;5098116;27;46816;-81
2024/04/06 00:44:51;;;;;;;;;7.75;6.25;;;;;17.05;81.45;100613.91;5103924;27;45556;-81
2024/04/06 00:47:17;;;;;;;;;5.75;5.75;;;;;17.07;81.66;100628.16;5097171;27;45431;-81
2024/04/06 00:49:42;;;;;;;;;5.50;5.25;;;;;17.06;82.00;100628.25;5083729;27;52659;-81
2024/04/06 00:52:07;;;;;;;;;6.75;6.00;;;;;17.12;81.80;100638.66;5104932;27;45298;-81
2024/04/06 00:54:33;;;;;;;;;6.00;6.00;;;;;17.03;81.71;100626.63;5092019;27;52702;-81
2024/04/06 00:56:58;;;;;;;;;6.75;6.00;;;;;17.27;82.02;100658.44;5094046;27;45313;-81
2024/04/06 00:59:24;;;;;;;;;6.25;6.25;;;;;17.15;82.04;100649.28;5100978;27;45388;-81
2024/04/06 01:01:49;;;;;;;;;6.00;6.00;;;;;17.19;82.13;100640.91;5104498;27;45302;-81
2024/04/06 01:04:15;;;;;;;;;5.00;5.00;;;;;17.03;82.07;100607.75;5103156;27;45416;-81
2024/04/06 01:06:40;;;;;;;;;6.00;5.75;;;;;17.11;81.84;100624.31;5104168;27;46284;-81
2024/04/06 01:09:07;;;;;;;;;8.75;7.50;;;;;17.13;81.92;100624.25;5103699;27;45270;-81
2024/04/06 01:11:35;;;;;;;;;6.00;6.00;;;;;16.98;82.05;100594.53;5102738;27;45353;-81
2024/04/06 01:14:01;;;;;;;;;6.00;6.00;;;;;16.93;81.80;100585.88;5103544;27;45225;-81
2024/04/06 01:16:27;;;;;;;;;5.75;5.75;;;;;17.02;81.67;100601.50;5083858;27;46965;-81
2024/04/06 01:18:52;;;;;;;;;9.50;6.75;;;;;17.01;82.08;100607.84;5103738;27;45530;-81
2024/04/06 01:21:19;;;;;;;;;7.50;7.50;;;;;16.94;81.99;100598.41;5092783;27;45267;-81
2024/04/06 01:23:46;;;;;;;;;1.00;1.00;;;;;17.10;82.00;100611.78;5082216;27;45262;-81
2024/04/06 01:26:11;;;;;;;;;7.50;6.00;;;;;17.06;82.14;100603.97;5103616;27;46125;-81
2024/04/06 01:28:36;;;;;;;;;5.75;5.75;;;;;16.97;81.70;100583.84;5103774;27;45241;-81
2024/04/06 01:31:02;;;;;;;;;7.50;7.00;;;;;16.89;81.82;100576.25;5103472;27;45265;-81
2024/04/06 01:33:27;;;;;;;;;7.00;7.00;;;;;16.94;81.36;100603.81;5085724;27;45338;-81
2024/04/06 01:35:52;;;;;;;;;6.00;6.00;;;;;16.87;81.60;100593.47;5103757;27;46618;-81
2024/04/06 01:38:18;;;;;;;;;7.75;6.75;;;;;17.04;81.52;100629.22;5103523;27;45602;-81
2024/04/06 01:40:43;;;;;;;;;4.75;4.75;;;;;16.88;81.27;100589.81;5103410;27;45293;-81
2024/04/06 01:43:08;;;;;;;;;7.50;7.50;;;;;16.86;81.37;100573.75;5096993;27;44837;-81
2024/04/06 01:45:34;;;;;;;;;6.75;6.75;;;;;17.04;81.94;100590.63;5102226;27;48169;-81
2024/04/06 01:47:59;;;;;;;;;6.00;6.00;;;;;16.93;81.88;100577.78;5093308;27;45823;-81
2024/04/06 01:50:25;;;;;;;;;5.00;4.50;;;;;16.95;81.31;100572.31;5092123;27;45243;-81
2024/04/06 01:52:50;;;;;;;;;8.00;6.75;;;;;16.87;81.29;100572.75;5102522;27;46186;-81
2024/04/06 01:55:15;;;;;;;;;9.50;7.25;;;;;16.84;81.46;100570.25;5101476;27;47379;-81
2024/04/06 01:57:41;;;;;;;;;8.00;6.75;;;;;16.81;81.23;100559.66;5103758;27;45285;-81
2024/04/06 02:00:08;;;;;;;;;7.75;7.75;;;;;16.72;81.11;100542.19;5103110;27;45317;-81
2024/04/06 02:02:34;;;;;;;;;6.00;6.00;;;;;16.71;81.16;100550.41;5103031;27;45758;-81
2024/04/06 02:04:59;;;;;;;;;6.00;6.00;;;;;16.71;81.75;100562.03;5102033;27;46059;-81
2024/04/06 02:07:24;;;;;;;;;8.00;7.75;;;;;16.65;81.41;100560.56;5102604;27;50672;-81
2024/04/06 02:09:49;;;;;;;;;7.50;7.50;;;;;16.75;81.59;100571.66;5103266;27;45264;-81
2024/04/06 02:12:15;;;;;;;;;7.00;6.00;;;;;16.90;81.76;100606.78;5084561;27;52931;-81
2024/04/06 02:14:41;;;;;;;;;5.00;4.25;;;;;16.69;81.68;100569.34;5103241;27;45320;-81
2024/04/06 02:17:06;;;;;;;;;6.00;6.00;;;;;16.70;81.15;100576.47;5102678;27;45215;-81
2024/04/06 02:19:31;;;;;;;;;8.50;6.50;;;;;16.80;81.32;100593.81;5085532;27;45339;-81
2024/04/06 02:21:57;;;;;;;;;7.75;7.75;;;;;16.56;81.80;100549.50;5084783;27;45431;-81
2024/04/06 02:24:23;;;;;;;;;5.25;5.00;;;;;16.60;81.50;100548.34;5101246;27;46361;-81
2024/04/06 02:26:48;;;;;;;;;5.00;3.75;;;;;16.56;81.55;100552.19;5084816;27;45391;-81
2024/04/06 02:29:14;;;;;;;;;6.75;5.00;;;;;16.56;81.68;100553.06;5102546;27;45376;-81
2024/04/06 02:31:39;;;;;;;;;6.00;5.00;;;;;16.76;81.32;100577.94;5102404;27;45451;-81
2024/04/06 02:34:05;;;;;;;;;5.25;5.25;;;;;16.72;81.85;100568.28;5104096;27;45409;-81
2024/04/06 02:36:30;;;;;;;;;4.25;4.25;;;;;16.53;81.38;100542.44;5101766;27;46301;-81
2024/04/06 02:38:55;;;;;;;;;6.00;6.00;;;;;16.73;81.57;100568.19;5102589;27;45449;-81
2024/04/06 02:41:21;;;;;;;;;6.25;5.75;;;;;16.55;81.46;100537.84;5103297;27;45611;-81
2024/04/06 02:43:46;;;;;;;;;5.50;4.50;;;;;16.49;81.66;100525.63;5095021;27;45476;-81
2024/04/06 02:46:12;;;;;;;;;7.50;5.25;;;;;16.60;81.32;100541.09;5084266;27;45358;-81
2024/04/06 02:48:37;;;;;;;;;5.25;5.25;;;;;16.58;81.10;100534.09;5091666;27;45905;-81
2024/04/06 02:51:05;;;;;;;;;6.25;6.25;;;;;16.68;80.99;100548.75;5102403;27;45479;-81
2024/04/06 02:53:31;;;;;;;;;5.00;5.00;;;;;16.67;80.84;100545.19;5101295;27;46302;-81
2024/04/06 02:55:56;;;;;;;;;4.50;4.50;;;;;16.59;80.78;100530.41;5083691;27;66941;-81
2024/04/06 02:58:22;;;;;;;;;4.50;4.50;;;;;16.69;80.72;100550.50;5102293;27;45320;-81
2024/04/06 03:00:48;;;;;;;;;6.00;6.00;;;;;16.70;80.80;100554.03;5085138;27;45962;-81
2024/04/06 03:03:13;;;;;;;;;4.75;4.75;;;;;16.64;80.88;100542.69;5102056;27;45654;-81
2024/04/06 03:05:39;;;;;;;;;5.00;4.75;;;;;16.71;80.62;100545.88;5083127;27;46031;-81
2024/04/06 03:08:04;;;;;;;;;3.00;3.00;;;;;16.60;80.63;100524.94;5083912;27;45304;-81
2024/04/06 03:10:29;;;;;;;;;4.00;4.00;;;;;16.60;80.47;100516.84;5101969;27;45319;-81
2024/04/06 03:12:55;;;;;;;;;5.00;4.25;;;;;16.58;80.38;100520.63;5102242;27;45361;-81
2024/04/06 03:15:20;;;;;;;;;3.75;3.25;;;;;16.49;80.40;100509.44;5101329;27;62569;-81
2024/04/06 03:17:45;;;;;;;;;3.25;3.25;;;;;16.64;80.25;100531.03;5084235;27;45429;-81
2024/04/06 03:20:10;;;;;;;;;4.00;4.00;;;;;16.59;80.38;100523.22;5100596;27;54586;-81
2024/04/06 03:22:36;;;;;;;;;4.75;4.75;;;;;16.54;79.96;100516.38;5101605;27;54561;-81
2024/04/06 03:25:01;;;;;;;;;4.00;3.00;;;;;16.56;80.40;100534.19;5100015;27;45278;-81
2024/04/06 03:27:26;;;;;;;;;4.75;4.75;;;;;16.55;80.09;100531.59;5084120;27;45479;-81
2024/04/06 03:29:52;;;;;;;;;3.25;3.25;;;;;16.55;79.77;100537.84;5101591;27;55460;-81
2024/04/06 03:32:17;;;;;;;;;2.25;2.25;;;;;16.53;80.02;100533.50;5101383;27;53624;-81
2024/04/06 03:34:43;;;;;;;;;4.00;3.50;;;;;16.55;79.24;100537.84;5101863;27;45417;-81
2024/04/06 03:37:08;;;;;;;;;2.25;2.25;;;;;16.55;79.35;100526.19;5102089;27;45287;-81
2024/04/06 03:39:33;;;;;;;;;2.00;2.00;;;;;16.50;79.72;100518.38;5082187;27;45803;-81
2024/04/06 03:41:59;;;;;;;;;2.50;2.50;;;;;16.55;79.51;100523.50;5087406;27;58038;-81
2024/04/06 03:44:24;;;;;;;;;1.25;1.25;;;;;16.46;78.68;100501.53;5096681;27;45254;-81
2024/04/06 03:46:50;;;;;;;;;2.00;2.00;;;;;16.45;78.96;100507.88;5088895;27;45241;-81
2024/04/06 03:49:15;;;;;;;;;3.00;3.00;;;;;16.40;78.88;100498.34;5093954;27;45338;-81
2024/04/06 03:51:40;;;;;;;;;3.25;3.00;;;;;16.43;78.80;100501.72;5098933;27;46143;-81
2024/04/06 03:54:06;;;;;;;;;3.25;3.25;;;;;16.48;79.04;100510.41;5090379;27;50978;-81
2024/04/06 03:56:31;;;;;;;;;4.75;3.75;;;;;16.46;78.42;100498.00;5082881;27;45381;-81
2024/04/06 03:58:57;;;;;;;;;2.00;2.00;;;;;16.46;78.13;100506.06;5101598;27;45165;-81
2024/04/06 04:01:22;;;;;;;;;3.00;3.00;;;;;16.50;78.60;100504.91;5090587;27;45810;-81
2024/04/06 04:03:47;;;;;;;;;4.00;3.25;;;;;16.49;78.02;100495.97;5105127;27;45259;-81
2024/04/06 04:06:13;;;;;;;;;2.75;2.75;;;;;16.47;77.46;100491.63;5078152;27;57972;-81
2024/04/06 04:08:38;;;;;;;;;4.00;4.00;;;;;16.43;77.18;100484.69;5105140;27;45498;-81
2024/04/06 04:11:04;;;;;;;;;4.00;3.00;;;;;16.43;77.57;100474.78;5104931;27;45413;-81
2024/04/06 04:13:29;;;;;;;;;2.75;2.75;;;;;16.36;77.57;100473.44;5104888;27;45351;-81
2024/04/06 04:15:54;;;;;;;;;3.00;3.00;;;;;16.40;77.57;100480.34;5072870;27;45318;-81
2024/04/06 04:18:20;;;;;;;;;2.25;2.25;;;;;16.41;77.26;100474.03;5104152;27;45317;-81
2024/04/06 04:20:45;;;;;;;;;3.00;3.00;;;;;16.42;76.57;100473.06;5104982;27;45769;-81
2024/04/06 04:23:11;;;;;;;;;3.75;2.00;;;;;16.38;76.45;100460.72;5104103;27;52029;-81
2024/04/06 04:25:37;;;;;;;;;2.00;2.00;;;;;16.37;76.58;100460.81;5104944;27;45465;-81
2024/04/06 04:28:03;;;;;;;;;3.75;2.00;;;;;16.34;76.40;100451.13;5104816;27;46009;-81
2024/04/06 04:30:28;;;;;;;;;2.00;2.00;;;;;16.27;76.13;100434.47;5105588;27;46621;-81
2024/04/06 04:32:54;;;;;;;;;2.00;2.00;;;;;16.33;75.80;100456.59;5103422;27;45291;-81
2024/04/06 04:35:20;;;;;;;;;3.25;3.00;;;;;16.25;75.32;100447.13;5090913;27;45246;-81
2024/04/06 04:37:45;;;;;;;;;2.00;2.00;;;;;16.22;75.64;100446.47;5105101;27;45392;-81
2024/04/06 04:40:11;;;;;;;;;2.00;2.00;;;;;16.21;75.31;100448.31;5085955;27;47416;-81
2024/04/06 04:42:37;;;;;;;;;2.75;2.75;;;;;16.28;75.31;100467.66;5098076;27;45635;-81
2024/04/06 04:45:09;;;;;;;;;2.50;2.00;;;;;16.29;75.18;100470.25;5086506;27;45196;-81
2024/04/06 04:47:34;;;;;;;;;3.00;2.00;;;;;16.26;74.94;100465.03;5096841;27;45862;-81
2024/04/06 04:50:00;;;;;;;;;2.00;2.00;;;;;16.16;74.60;100447.72;5100937;27;45500;-81
2024/04/06 04:52:25;;;;;;;;;2.75;1.00;;;;;16.17;74.23;100444.06;5104700;27;45219;-81
2024/04/06 04:54:50;;;;;;;;;2.00;2.00;;;;;16.14;74.09;100436.19;5102284;27;54262;-81
2024/04/06 04:57:16;;;;;;;;;2.25;2.25;;;;;16.26;74.45;100453.41;5089645;27;45227;-81
2024/04/06 04:59:41;;;;;;;;;3.00;2.00;;;;;16.14;74.19;100433.47;5103127;27;45848;-81
2024/04/06 05:02:06;;;;;;;;;2.50;2.00;;;;;16.21;74.21;100431.28;5103386;27;56286;-81
2024/04/06 05:04:31;;;;;;;;;1.00;1.00;;;;;16.28;74.13;100444.25;5091359;27;54483;-81
2024/04/06 05:06:57;;;;;;;;;2.00;2.00;;;;;16.26;73.86;100427.34;5079288;27;45259;-81
2024/04/06 05:09:22;;;;;;;;;2.75;2.75;;;;;16.26;73.28;100435.41;5103984;27;60378;-81
2024/04/06 05:11:48;;;;;;;;;1.25;1.00;;;;;16.29;73.28;100437.06;5102694;27;57280;-81
2024/04/06 05:14:13;;;;;;;;;2.00;2.00;;;;;16.30;72.94;100436.97;5104190;27;45370;-81
2024/04/06 05:16:39;;;;;;;;;1.50;1.25;;;;;16.26;72.31;100429.19;5103943;27;45393;-81
2024/04/06 05:19:05;;;;;;;;;2.00;2.00;;;;;16.22;72.43;100424.91;5104233;27;45386;-81
2024/04/06 05:21:31;;;;;;;;;1.50;1.00;;;;;16.26;72.99;100431.88;5104210;27;45304;-81
2024/04/06 05:23:58;;;;;;;;;2.00;2.00;;;;;16.27;71.56;100447.94;5099477;27;45363;-81
2024/04/06 05:26:23;;;;;;;;;2.00;1.00;;;;;16.16;71.88;100423.47;5104050;27;45246;-81
2024/04/06 05:28:49;;;;;;;;;1.00;1.00;;;;;16.21;72.00;100436.66;5103607;27;45324;-81
2024/04/06 05:31:14;;;;;;;;;1.75;1.75;;;;;16.27;71.77;100447.94;5103878;27;45239;-81
2024/04/06 05:33:39;;;;;;;;;1.75;1.75;;;;;16.17;71.52;100429.72;5105120;27;45328;-81
2024/04/06 05:36:06;;;;;;;;;2.25;2.25;;;;;16.26;71.00;100450.72;5103042;27;56996;-81
2024/04/06 05:38:32;;;;;;;;;1.50;1.50;;;;;16.22;71.08;100444.66;5084834;27;47655;-81
2024/04/06 05:40:57;;;;;;;;;2.00;2.00;;;;;16.24;71.06;100444.56;5103088;27;45274;-81
2024/04/06 05:43:23;;;;;;;;;2.00;2.00;;;;;16.24;71.21;100444.56;5103895;27;45239;-81
2024/04/06 05:46:04;;;;;;;;;1.00;1.00;;;;;16.24;70.85;100433.78;5102997;27;45556;-80
2024/04/06 05:48:30;;;;;;;;;1.50;1.50;;;;;16.19;70.39;100417.03;5091410;27;47396;-81
2024/04/06 05:50:57;;;;;;;;;1.00;1.00;;;;;16.25;70.54;100427.44;5097835;27;45406;-81
2024/04/06 05:53:23;;;;;;;;;1.75;1.75;;;;;16.20;69.78;100416.06;5097078;27;45645;-81
2024/04/06 05:55:48;;;;;;;;;1.75;1.00;;;;;16.23;69.55;100421.28;5097908;27;46353;-81
2024/04/06 05:58:14;;;;;;;;;1.00;1.00;;;;;16.10;69.45;100405.00;5103098;27;45312;-81
2024/04/06 06:00:39;;;;;;;;;1.00;1.00;;;;;16.11;69.68;100410.28;5083443;27;45726;-81
2024/04/06 06:03:04;;;;;;;;;1.75;1.75;;;;;16.23;69.13;100427.53;5101786;27;45362;-81
2024/04/06 06:05:30;;;;;;;;;1.00;1.00;;;;;16.17;69.15;100425.22;5102152;27;45409;-81
2024/04/06 06:07:55;;;;;;;;;2.25;1.00;;;;;16.15;69.20;100421.72;5103068;27;45440;-81
2024/04/06 06:10:21;;;;;;;;;1.00;1.00;;;;;16.19;68.57;100433.19;5103246;27;47375;-81
2024/04/06 06:12:46;;;;;;;;;3.25;2.75;;;;;16.23;68.73;100424.81;5099463;27;45356;-81
2024/04/06 06:15:11;;;;;;;;;1.00;1.00;;;;;16.19;68.53;100420.59;5097285;27;45290;-81
2024/04/06 06:17:37;;;;;;;;;3.00;1.00;;;;;16.20;68.26;100418.78;5102628;27;45227;-81
2024/04/06 06:20:05;;;;;;;;;1.00;0.75;;;;;16.17;68.22;100413.56;5103311;27;45659;-81
2024/04/06 06:22:30;;;;;;;;;1.00;1.00;;;;;16.25;68.29;100417.50;5085724;27;45224;-81
2024/04/06 06:24:57;;;;;;;;;2.00;1.00;;;;;16.21;67.82;100402.53;5101678;27;45478;-84
2024/04/06 06:27:23;;;;;;;;;0.00;0.00;;;;;16.21;67.42;100397.13;5103391;27;46457;-83
2024/04/06 06:29:49;;;;;;;;;2.00;2.00;;;;;16.24;67.74;100407.72;5101851;27;45379;-83
2024/04/06 06:32:14;;;;;;;;;1.00;1.00;;;;;16.19;67.89;100390.09;5084464;27;45643;-83
2024/04/06 06:34:40;;;;;;;;;1.00;1.00;;;;;16.22;67.58;100396.19;5085036;27;45381;-83
2024/04/06 06:37:06;;;;;;;;;1.00;1.00;;;;;16.22;67.52;100385.41;5103614;27;45234;-83
2024/04/06 06:39:31;;;;;;;;;1.00;1.00;;;;;16.19;66.82;100390.97;5102227;27;45494;-83
2024/04/06 06:41:56;;;;;;;;;1.00;1.00;;;;;16.32;66.21;100401.00;5104136;27;45359;-84
2024/04/06 06:44:22;;;;;;;;;1.00;1.00;;;;;16.29;66.43;100394.84;5093438;27;56709;-84
2024/04/06 06:46:47;;;;;;;;;2.00;2.00;;;;;16.32;66.32;100401.84;5104742;27;46572;-84
2024/04/06 06:49:12;;;;;;;;;1.00;1.00;;;;;16.26;66.25;100386.09;5105054;27;45416;-83
2024/04/06 06:51:38;;;;;;;;;1.75;1.50;;;;;16.34;65.54;100399.06;5110412;27;45368;-84
2024/04/06 06:54:04;;;;;;;;;0.75;0.75;;;;;16.25;65.90;100385.19;5107782;27;45297;-83
2024/04/06 06:56:29;;;;;;;;;1.00;1.00;;;;;16.36;65.72;100400.72;5106067;27;45289;-83
2024/04/06 06:58:55;;;;;;;;;1.25;1.25;;;;;16.31;65.34;100383.97;5086973;27;46077;-83
2024/04/06 07:01:20;;;;;;;;;1.00;0.25;;;;;16.40;65.38;100390.59;5098736;27;45353;-84
2024/04/06 07:03:45;;;;;;;;;1.00;1.00;;;;;16.39;65.07;100391.56;5103871;27;45452;-83
2024/04/06 07:06:12;;;;;;;;;2.00;1.00;;;;;16.43;64.64;100382.34;5103911;27;45338;-84
2024/04/06 07:08:44;;;;;;;;;0.50;0.50;;;;;16.35;64.66;100358.56;5109745;27;45170;-83
2024/04/06 07:11:10;;;;;;;;;1.00;1.00;;;;;16.45;64.69;100370.50;5109541;27;45242;-83
2024/04/06 07:13:36;;;;;;;;;3.00;1.50;;;;;16.45;64.14;100365.09;5109605;27;45285;-83
2024/04/06 07:16:10;;;;;;;;;1.00;1.00;;;;;16.48;64.51;100367.59;5104860;27;47358;-83
2024/04/06 07:18:37;;;;;;;;;1.00;0.75;;;;;16.52;64.48;100376.34;5104538;27;45257;-83
2024/04/06 07:21:03;;;;;;;;;1.00;1.00;;;;;16.46;64.33;100357.91;5103778;27;45393;-83
2024/04/06 07:23:28;;;;;;;;;1.00;1.00;;;;;16.52;63.47;100376.34;5101375;27;45282;-83
2024/04/06 07:25:54;;;;;;;;;2.00;0.00;;;;;16.48;63.66;100359.53;5101365;27;50600;-83
2024/04/06 07:28:19;;;;;;;;;1.00;1.00;;;;;16.59;63.18;100380.41;5084174;27;49395;-83
2024/04/06 07:30:44;;;;;;;;;1.00;1.00;;;;;16.62;62.82;100377.53;5102272;27;45303;-83
2024/04/06 07:33:11;;;;;;;;;1.00;1.00;;;;;16.50;63.20;100356.72;5102762;27;45310;-83
2024/04/06 07:35:37;;;;;;;;;1.00;1.00;;;;;16.62;62.80;100372.16;5104006;27;45948;-83
2024/04/06 07:38:02;;;;;;;;;2.00;2.00;;;;;16.65;62.85;100373.75;5104682;27;45425;-83
2024/04/06 07:40:28;;;;;;;;;1.75;1.00;;;;;16.77;62.13;100373.00;5087558;27;45478;-83
2024/04/06 07:42:53;;;;;;;;;1.00;1.00;;;;;16.71;62.26;100345.56;5105380;27;45519;-83
2024/04/06 07:45:19;;;;;;;;;1.00;1.00;;;;;16.77;61.98;100343.34;5084858;27;47158;-83
2024/04/06 07:47:44;;;;;;;;;1.25;1.25;;;;;16.86;61.51;100350.00;5103241;27;45285;-83
2024/04/06 07:50:09;;;;;;;;;1.00;1.00;;;;;16.85;61.35;100348.25;5099564;27;45514;-83
2024/04/06 07:52:34;;;;;;;;;1.00;1.00;;;;;16.81;61.55;100323.31;5103149;27;45492;-83
2024/04/06 07:55:00;;;;;;;;;1.25;0.50;;;;;16.83;61.24;100318.66;5081138;27;57319;-82
2024/04/06 07:57:26;;;;;;;;;1.00;1.00;;;;;16.77;60.93;100307.41;5105857;27;45238;-83
2024/04/06 07:59:52;;;;;;;;;1.75;1.00;;;;;16.91;61.20;100317.34;5089904;27;45340;-82
2024/04/06 08:02:17;;;;;;;;;1.00;1.00;;;;;17.03;60.93;100330.00;5086229;27;45285;-82
2024/04/06 08:04:44;;;;;;;;;2.00;1.50;;;;;17.01;60.97;100308.53;5085003;28;63825;-82
2024/04/06 08:07:10;;;;;;;;;1.50;0.50;;;;;17.17;60.94;100337.19;5082532;27;45463;-80
2024/04/06 08:09:36;;;;;;;;;1.00;1.00;;;;;17.21;60.05;100344.13;5085312;28;45226;-80
2024/04/06 08:12:01;;;;;;;;;0.25;0.25;;;;;17.21;60.19;100338.72;5085111;27;45230;-80
2024/04/06 08:14:27;;;;;;;;;1.00;1.00;;;;;17.28;59.75;100340.03;5083949;28;61478;-79
2024/04/06 08:16:52;;;;;;;;;1.00;1.00;;;;;17.32;59.14;100338.00;5084458;27;45322;-80
2024/04/06 08:19:17;;;;;;;;;2.25;1.00;;;;;17.37;59.72;100319.66;5084980;28;45264;-80
2024/04/06 08:21:43;;;;;;;;;1.00;1.00;;;;;17.36;58.85;100305.31;5084410;27;45291;-81
2024/04/06 08:24:08;;;;;;;;;0.50;0.50;;;;;17.39;58.86;100301.53;5077060;27;45432;-80
2024/04/06 08:26:33;;;;;;;;;1.50;1.50;;;;;17.50;58.62;100304.38;5081205;28;45309;-80
2024/04/06 08:29:00;;;;;;;;;1.00;1.00;;;;;17.55;59.21;100306.75;5083216;27;45189;-80
2024/04/06 08:31:25;;;;;;;;;1.00;0.50;;;;;17.59;58.44;100317.25;5094634;27;45562;-80
2024/04/06 08:33:50;;;;;;;;;1.75;1.75;;;;;17.65;57.04;100312.41;5083765;28;47294;-80
2024/04/06 08:36:15;;;;;;;;;1.00;1.00;;;;;17.68;58.09;100312.19;5082450;27;59817;-80
2024/04/06 08:38:41;;;;;;;;;1.00;1.00;;;;;17.77;58.06;100312.44;5083959;28;51821;-80
2024/04/06 08:41:09;;;;;;;;;1.00;1.00;;;;;17.81;58.63;100314.88;5083483;28;59877;-80
2024/04/06 08:43:37;;;;;;;;;0.25;0.25;;;;;17.92;57.55;100309.63;5083121;28;47545;-80
2024/04/06 08:46:05;;;;;;;;;0.25;0.25;;;;;17.97;57.46;100302.06;5082554;28;45329;-80
2024/04/06 08:48:34;;;;;;;;;0.00;0.00;;;;;18.06;57.66;100305.97;5076640;27;45499;-80
2024/04/06 08:51:02;;;;;;;;;0.00;0.00;;;;;18.01;56.80;100290.09;5083020;28;45429;-80
2024/04/06 08:53:28;;;;;;;;;1.25;0.00;;;;;18.21;56.17;100301.31;5077747;28;45438;-80
2024/04/06 08:55:55;;;;;;;;;0.75;0.75;;;;;18.28;56.07;100308.03;5084372;28;45325;-80
2024/04/06 08:58:20;;;;;;;;;0.75;0.75;;;;;18.29;55.68;100304.31;5083950;27;45265;-80
2024/04/06 09:00:51;;;;;;;;;0.00;0.00;;;;;18.36;55.07;100297.53;5079169;28;45303;-80
2024/04/06 09:03:16;;;;;;;;;1.00;0.75;;;;;18.48;55.58;100309.28;5063134;28;45480;-80
2024/04/06 09:05:43;;;;;;;;;0.00;0.00;;;;;18.42;55.67;100296.22;5059947;28;47555;-81
2024/04/06 09:08:08;;;;;;;;;0.50;0.00;;;;;18.61;55.32;100330.84;5063582;28;45259;-81
2024/04/06 09:10:35;;;;;;;;;0.00;0.00;;;;;18.68;55.32;100345.69;5063824;28;45254;-80
2024/04/06 09:13:01;;;;;;;;;0.00;0.00;;;;;18.72;55.51;100349.03;5062857;28;45460;-80
2024/04/06 09:15:26;;;;;;;;;0.00;0.00;;;;;18.82;55.00;100359.03;5062959;28;51303;-80
2024/04/06 09:17:51;;;;;;;;;0.00;0.00;;;;;18.87;54.82;100361.44;5061580;28;45471;-81
2024/04/06 09:20:17;;;;;;;;;1.25;0.25;;;;;18.85;55.12;100339.91;5077696;28;64927;-80
2024/04/06 09:22:43;;;;;;;;;0.00;0.00;;;;;19.03;54.83;100359.34;5063420;28;45198;-80
2024/04/06 09:25:09;;;;;;;;;0.75;0.75;;;;;19.10;54.82;100351.63;5065593;28;45746;-80
2024/04/06 09:27:34;;;;;;;;;0.50;0.50;;;;;19.19;54.41;100356.34;5063743;28;45421;-80
2024/04/06 09:29:59;;;;;;;;;1.00;1.00;;;;;19.25;54.30;100347.78;5060431;28;61874;-80
2024/04/06 09:32:29;;;;;;;;;1.00;1.00;;;;;19.34;54.10;100346.22;5061260;28;46434;-80
2024/04/06 09:34:55;;;;;;;;;1.00;0.00;;;;;19.41;54.32;100344.78;5061396;28;45207;-80
2024/04/06 09:37:32;;;;;;;;;1.00;1.00;;;;;19.40;53.37;100329.53;5061582;28;45411;-80
2024/04/06 09:39:58;;;;;;;;;0.00;0.00;;;;;19.49;53.73;100346.03;5052958;28;45197;-80
2024/04/06 09:42:25;;;;;;;;;0.75;0.75;;;;;19.48;53.51;100336.19;5062483;28;45632;-81
2024/04/06 09:44:52;;;;;;;;;0.00;0.00;;;;;19.62;53.56;100346.84;5062847;28;45394;-80
2024/04/06 09:47:21;;;;;;;;;0.00;0.00;;;;;19.58;52.63;100324.56;5078755;28;45394;-80
2024/04/06 09:49:48;;;;;;;;;0.00;0.00;;;;;19.69;52.68;100339.09;5053990;28;45188;-80
2024/04/06 09:52:14;;;;;;;;;1.75;1.00;;;;;19.78;52.78;100338.44;5049014;28;45396;-80
2024/04/06 09:54:40;;;;;;;;;0.00;0.00;;;;;19.75;52.32;100322.44;5055612;28;45456;-80
2024/04/06 09:57:06;;;;;;;;;1.00;1.00;;;;;19.84;52.54;100337.94;5062874;28;45545;-80
2024/04/06 09:59:31;;;;;;;;;0.25;0.25;;;;;19.91;52.65;100333.78;5061715;28;45258;-80
2024/04/06 10:01:57;;;;;;;;;0.50;0.50;;;;;19.93;52.43;100337.25;5097173;27;45339;-80
2024/04/06 10:04:26;;;;;;;;;1.25;1.25;;;;;19.97;52.45;100327.88;5099212;27;45343;-80
2024/04/06 10:06:56;;;;;;;;;0.50;0.00;;;;;20.04;51.95;100333.69;5081817;27;45234;-80
2024/04/06 10:09:28;;;;;;;;;1.00;1.00;;;;;20.11;52.44;100343.06;5103811;27;45428;-79
2024/04/06 10:11:58;;;;;;;;;1.00;1.00;;;;;20.10;51.69;100346.75;5102743;27;45416;-79
2024/04/06 10:14:24;;;;;;;;;0.00;0.00;;;;;20.20;52.56;100343.28;5103299;27;45277;-80
2024/04/06 10:16:50;;;;;;;;;2.00;2.00;;;;;20.21;51.98;100354.03;5102904;27;45376;-78
2024/04/06 10:19:15;;;;;;;;;1.00;1.00;;;;;20.06;51.28;100311.88;5103143;27;45476;-80
2024/04/06 10:21:46;;;;;;;;;1.00;1.00;;;;;20.13;51.10;100313.13;5102757;27;45269;-80
2024/04/06 10:24:13;;;;;;;;;2.00;2.00;;;;;20.29;52.06;100326.31;5094617;27;45473;-80
2024/04/06 10:26:50;;;;;;;;;1.00;1.00;;;;;20.30;51.24;100322.63;5100528;27;45275;-80
2024/04/06 10:29:16;;;;;;;;;1.00;1.00;;;;;20.38;51.45;100328.31;5093905;27;45276;-81
2024/04/06 10:31:42;;;;;;;;;0.00;0.00;;;;;20.29;51.17;100305.50;5099553;27;45353;-80
2024/04/06 10:34:08;;;;;;;;;1.00;1.00;;;;;20.27;51.19;100290.34;5101872;27;45445;-80
2024/04/06 10:36:34;;;;;;;;;1.00;1.00;;;;;20.36;51.86;100305.84;5102785;27;45451;-80
2024/04/06 10:39:01;;;;;;;;;4.00;2.00;;;;;20.53;51.25;100339.75;5102111;27;45320;-80
2024/04/06 10:41:26;;;;;;;;;1.00;1.00;;;;;20.62;51.79;100324.59;5102098;27;45416;-80
2024/04/06 10:43:51;;;;;;;;;1.50;1.00;;;;;20.65;51.36;100333.38;5096737;27;46225;-79
2024/04/06 10:46:18;;;;;;;;;4.25;1.25;;;;;20.47;51.11;100286.03;5100824;27;45313;-79
2024/04/06 10:48:44;;;;;;;;;2.50;1.00;;;;;20.72;51.33;100323.75;5095280;27;45445;-79
2024/04/06 10:51:11;;;;;;;;;3.00;2.25;;;;;20.66;51.42;100305.25;5102238;27;45226;-79
2024/04/06 10:53:37;;;;;;;;;1.00;1.00;;;;;20.80;51.77;100319.53;5078478;27;45299;-80
2024/04/06 10:56:03;;;;;;;;;1.00;1.00;;;;;20.85;51.47;100325.47;5102919;27;45250;-80
2024/04/06 10:58:28;;;;;;;;;1.00;1.00;;;;;20.85;50.71;100329.03;5101574;27;45333;-80
2024/04/06 11:00:54;;;;;;;;;1.50;1.50;;;;;20.94;51.32;100342.84;5090764;27;45289;-80
2024/04/06 11:03:22;;;;;;;;;1.00;1.00;;;;;20.97;51.27;100346.16;5095813;27;63960;-79
2024/04/06 11:05:47;;;;;;;;;2.75;1.00;;;;;21.02;51.68;100375.63;5079042;27;45295;-80
2024/04/06 11:08:13;;;;;;;;;2.25;2.25;;;;;21.01;51.07;100376.59;5100524;27;45748;-80
2024/04/06 11:10:39;;;;;;;;;2.25;2.25;;;;;21.00;51.28;100374.84;5066647;27;47347;-80
2024/04/06 11:13:04;;;;;;;;;5.25;2.00;;;;;21.13;50.84;100388.28;5102432;27;45429;-80
2024/04/06 11:15:29;;;;;;;;;2.50;2.00;;;;;21.19;51.26;100410.34;5084374;27;45240;-79
2024/04/06 11:17:56;;;;;;;;;2.75;2.00;;;;;21.23;51.56;100419.09;5102930;27;45259;-80